createdAt,value
2023-02-07T00:02:49.310Z,-5.52
2023-02-07T00:07:49.201Z,-5.51
2023-02-07T00:12:49.190Z,-5.59
2023-02-07T00:17:49.176Z,-5.75
2023-02-07T00:22:51.825Z,-5.77
2023-02-07T00:27:49.273Z,-5.80
2023-02-07T00:32:49.112Z,-5.82
2023-02-07T00:37:49.107Z,-5.81
2023-02-07T00:42:49.063Z,-5.82
2023-02-07T00:47:49.056Z,-5.96
2023-02-07T00:52:49.029Z,-5.91
2023-02-07T00:57:49.024Z,-6.00
2023-02-07T01:02:48.996Z,-6.05
2023-02-07T01:07:49.007Z,-6.16
2023-02-07T01:12:48.972Z,-6.14
2023-02-07T01:17:48.971Z,-6.23
2023-02-07T01:22:48.923Z,-6.26
2023-02-07T01:27:48.944Z,-6.17
2023-02-07T01:32:48.856Z,-6.19
2023-02-07T01:37:48.835Z,-6.14
2023-02-07T01:42:48.829Z,-6.35
2023-02-07T01:47:48.818Z,-6.37
2023-02-07T01:52:48.806Z,-6.32
2023-02-07T01:57:48.789Z,-6.38
2023-02-07T02:02:48.909Z,-6.52
2023-02-07T02:07:48.693Z,-6.55
2023-02-07T02:12:51.341Z,-6.55
2023-02-07T02:17:48.670Z,-6.59
2023-02-07T02:22:48.663Z,-6.72
2023-02-07T02:27:48.687Z,-6.90
2023-02-07T02:32:48.639Z,-6.85
2023-02-07T02:37:48.619Z,-6.96
2023-02-07T02:42:48.601Z,-6.90
2023-02-07T02:47:48.599Z,-6.99
2023-02-07T02:52:51.035Z,-7.05
2023-02-07T02:57:48.560Z,-7.03
2023-02-07T03:02:48.513Z,-7.08
2023-02-07T03:07:48.517Z,-7.08
2023-02-07T03:12:48.489Z,-7.08
2023-02-07T03:17:48.486Z,-7.05
2023-02-07T03:22:48.477Z,-7.20
2023-02-07T03:27:48.494Z,-7.18
2023-02-07T03:32:48.445Z,-7.20
2023-02-07T03:37:48.451Z,-7.08
2023-02-07T03:42:48.447Z,-7.18
2023-02-07T03:47:48.406Z,-7.18
2023-02-07T03:52:48.392Z,-7.32
2023-02-07T03:57:48.362Z,-7.46
2023-02-07T04:02:48.318Z,-7.45
2023-02-07T04:07:48.277Z,-7.35
2023-02-07T04:12:48.224Z,-7.37
2023-02-07T04:17:48.217Z,-7.34
2023-02-07T04:22:48.186Z,-7.23
2023-02-07T04:27:48.181Z,-7.28
2023-02-07T04:32:48.140Z,-7.29
2023-02-07T04:37:48.132Z,-7.32
2023-02-07T04:42:48.114Z,-7.28
2023-02-07T04:47:48.093Z,-7.42
2023-02-07T04:52:48.073Z,-7.47
2023-02-07T04:57:48.071Z,-7.32
2023-02-07T05:02:48.012Z,-7.41
2023-02-07T05:07:47.996Z,-7.37
2023-02-07T05:12:47.985Z,-7.46
2023-02-07T05:17:47.986Z,-7.34
2023-02-07T05:22:47.928Z,-7.32
2023-02-07T05:27:47.978Z,-7.41
2023-02-07T05:32:47.883Z,-7.41
2023-02-07T05:37:47.883Z,-7.41
2023-02-07T05:42:47.869Z,-7.34
2023-02-07T05:47:47.866Z,-7.45
2023-02-07T05:52:47.828Z,-7.50
2023-02-07T05:57:47.809Z,-7.49
2023-02-07T06:02:47.791Z,-7.56
2023-02-07T06:07:47.724Z,-7.55
2023-02-07T06:12:47.669Z,-7.46
2023-02-07T06:17:47.661Z,-7.57
2023-02-07T06:22:47.658Z,-7.64
2023-02-07T06:27:47.679Z,-7.52
2023-02-07T06:32:47.609Z,-7.46
2023-02-07T06:37:47.603Z,-7.55
2023-02-07T06:42:47.559Z,-7.52
2023-02-07T06:47:47.579Z,-7.55
2023-02-07T06:52:47.512Z,-7.50
2023-02-07T06:57:47.505Z,-7.28
2023-02-07T07:02:47.526Z,-7.37
2023-02-07T07:15:53.270Z,-7.46
2023-02-07T07:15:58.064Z,-7.28
2023-02-07T07:20:58.028Z,-7.10
2023-02-07T07:25:58.702Z,-7.02
2023-02-07T07:31:02.584Z,-6.96
2023-02-07T07:36:12.788Z,-6.92
2023-02-07T07:40:58.024Z,-6.82
2023-02-07T07:52:03.349Z,-6.66
2023-02-07T07:52:08.140Z,-6.37
2023-02-07T07:57:40.205Z,-6.19
2023-02-07T08:02:08.065Z,-6.09
2023-02-07T08:11:12.518Z,-5.95
2023-02-07T08:12:08.036Z,-5.75
2023-02-07T08:18:09.027Z,-5.55
2023-02-07T08:23:11.370Z,-5.42
2023-02-07T08:27:41.013Z,-5.24
2023-02-07T08:32:10.726Z,-5.05
2023-02-07T08:37:08.305Z,-4.84
2023-02-07T08:42:17.466Z,-4.66
2023-02-07T08:47:07.921Z,-4.20
2023-02-07T08:52:07.811Z,-4.01
2023-02-07T08:57:07.962Z,-3.83
2023-02-07T09:02:09.313Z,-3.22
2023-02-07T09:07:14.527Z,-2.97
2023-02-07T11:27:06.944Z,-2.89
2023-02-07T11:27:11.710Z,-0.16
2023-02-07T11:32:13.312Z,0.05
2023-02-07T11:37:13.325Z,0.34
2023-02-07T11:42:13.358Z,0.44
2023-02-07T11:47:13.302Z,0.35
2023-02-07T11:55:10.320Z,0.60
2023-02-07T12:00:11.276Z,0.63
2023-02-07T12:05:07.028Z,0.93
2023-02-07T12:10:15.285Z,1.39
2023-02-07T12:15:08.690Z,1.25
2023-02-07T12:22:13.625Z,1.36
2023-02-07T14:39:30.354Z,1.35
2023-02-07T14:39:35.118Z,1.20
2023-02-07T14:44:38.714Z,1.21
2023-02-07T14:49:36.673Z,1.21
2023-02-07T14:54:35.170Z,1.24
2023-02-07T14:59:36.674Z,1.32
2023-02-07T15:17:07.203Z,1.32
2023-02-07T15:17:14.639Z,1.11
2023-02-07T15:22:25.508Z,1.04
2023-02-07T15:27:17.258Z,1.11
2023-02-07T15:34:18.713Z,0.99
2023-02-07T15:37:18.830Z,0.96
2023-02-07T15:42:18.832Z,0.93
2023-02-07T15:47:18.828Z,0.82
2023-02-07T15:52:18.913Z,0.62
2023-02-07T15:57:18.833Z,0.48
2023-02-07T16:02:15.236Z,0.33
2023-02-07T16:07:14.305Z,0.17
2023-02-07T16:12:14.307Z,-0.01
2023-02-07T16:17:14.279Z,-0.23
2023-02-07T16:22:14.241Z,-0.55
2023-02-07T16:27:14.187Z,-0.77
2023-02-07T16:32:14.175Z,-0.83
2023-02-07T16:37:14.164Z,-1.02
2023-02-07T16:42:14.163Z,-1.10
2023-02-07T16:47:14.155Z,-1.20
2023-02-07T16:52:14.163Z,-1.29
2023-02-07T16:57:14.113Z,-1.43
2023-02-07T17:02:14.139Z,-1.51
2023-02-07T17:07:15.671Z,-1.64
2023-02-07T17:12:14.055Z,-1.72
2023-02-07T17:17:13.998Z,-1.85
2023-02-07T17:22:13.953Z,-1.90
2023-02-07T17:27:13.904Z,-2.00
2023-02-07T17:32:13.922Z,-2.06
2023-02-07T17:37:13.863Z,-2.11
2023-02-07T17:42:13.852Z,-2.19
2023-02-07T17:47:13.870Z,-2.29
2023-02-07T17:52:13.769Z,-2.37
2023-02-07T17:57:13.779Z,-2.43
2023-02-07T18:02:13.680Z,-2.55
2023-02-07T18:07:13.648Z,-2.56
2023-02-07T18:12:13.633Z,-2.50
2023-02-07T18:17:13.632Z,-2.41
2023-02-07T18:22:13.579Z,-2.35
2023-02-07T18:27:13.533Z,-2.38
2023-02-07T18:32:13.539Z,-2.46
2023-02-07T18:37:13.484Z,-2.44
2023-02-07T18:42:13.485Z,-2.46
2023-02-07T18:47:13.438Z,-2.50
2023-02-07T18:52:13.433Z,-2.61
2023-02-07T18:57:13.482Z,-2.68
2023-02-07T19:02:13.488Z,-2.69
2023-02-07T19:07:13.405Z,-2.72
2023-02-07T19:12:13.686Z,-2.82
2023-02-07T19:17:13.319Z,-2.82
2023-02-07T19:22:14.195Z,-2.74
2023-02-07T19:27:13.248Z,-2.71
2023-02-07T19:32:13.238Z,-2.76
2023-02-07T19:37:13.210Z,-2.79
2023-02-07T19:42:13.204Z,-2.79
2023-02-07T19:47:13.684Z,-2.79
2023-02-07T19:52:13.139Z,-2.77
2023-02-07T19:57:13.096Z,-2.83
2023-02-07T20:02:13.036Z,-2.87
2023-02-07T20:07:13.017Z,-2.86
2023-02-07T20:12:13.019Z,-2.89
2023-02-07T20:17:12.973Z,-2.94
2023-02-07T20:22:12.962Z,-3.00
2023-02-07T20:27:12.963Z,-3.02
2023-02-07T20:32:13.019Z,-3.10
2023-02-07T20:37:12.907Z,-3.13
2023-02-07T20:42:12.894Z,-3.19
2023-02-07T20:47:12.921Z,-3.22
2023-02-07T20:52:12.809Z,-3.22
2023-02-07T20:57:12.778Z,-3.16
2023-02-07T21:02:12.808Z,-3.28
2023-02-07T21:07:12.714Z,-3.28
2023-02-07T21:12:12.671Z,-3.34
2023-02-07T21:17:12.628Z,-3.39
2023-02-07T21:22:12.612Z,-3.43
2023-02-07T21:27:12.590Z,-3.49
2023-02-07T21:32:12.552Z,-3.52
2023-02-07T21:37:12.496Z,-3.58
2023-02-07T21:42:12.504Z,-3.68
2023-02-07T21:47:12.456Z,-3.76
2023-02-07T21:52:12.492Z,-3.77
2023-02-07T21:57:14.251Z,-3.77
2023-02-07T22:02:12.472Z,-3.86
2023-02-07T22:07:12.383Z,-3.84
2023-02-07T22:12:12.387Z,-3.89
2023-02-07T22:17:12.387Z,-3.89
2023-02-07T22:22:12.337Z,-4.02
2023-02-07T22:27:12.293Z,-4.22
2023-02-07T22:32:12.292Z,-4.34
2023-02-07T22:37:12.267Z,-4.46
2023-02-07T22:42:12.211Z,-4.54
2023-02-07T22:47:12.186Z,-4.63
2023-02-07T22:52:12.233Z,-4.74
2023-02-07T22:57:12.158Z,-4.84
2023-02-07T23:02:12.203Z,-4.97
2023-02-07T23:07:12.101Z,-4.88
2023-02-07T23:12:12.057Z,-4.88
2023-02-07T23:17:12.063Z,-4.85
2023-02-07T23:22:11.994Z,-4.83
2023-02-07T23:27:11.978Z,-4.83
2023-02-07T23:32:11.960Z,-4.87
2023-02-07T23:37:11.901Z,-5.02
2023-02-07T23:42:11.851Z,-5.03
2023-02-07T23:47:11.857Z,-5.03
2023-02-07T23:52:11.822Z,-5.09
2023-02-07T23:57:11.826Z,-5.12
